sensor_id;sensor_type;location;lat;lon;timestamp;temperature;humidity
60868;DHT22;46702;48.370;10.794;2022-08-05T00:00:17;21.30;93.30
60868;DHT22;46702;48.370;10.794;2022-08-05T00:02:44;21.20;93.90
60868;DHT22;46702;48.370;10.794;2022-08-05T00:05:10;21.20;94.10
60868;DHT22;46702;48.370;10.794;2022-08-05T00:07:36;21.10;94.60
60868;DHT22;46702;48.370;10.794;2022-08-05T00:10:01;21.00;94.70
60868;DHT22;46702;48.370;10.794;2022-08-05T00:12:27;20.90;95.20
60868;DHT22;46702;48.370;10.794;2022-08-05T00:14:53;20.70;95.30
60868;DHT22;46702;48.370;10.794;2022-08-05T00:17:18;20.60;96.50
60868;DHT22;46702;48.370;10.794;2022-08-05T00:19:44;20.60;95.60
60868;DHT22;46702;48.370;10.794;2022-08-05T00:22:10;20.70;95.70
60868;DHT22;46702;48.370;10.794;2022-08-05T00:24:35;20.70;96.20
60868;DHT22;46702;48.370;10.794;2022-08-05T00:27:01;20.70;95.70
60868;DHT22;46702;48.370;10.794;2022-08-05T00:29:27;20.60;96.30
60868;DHT22;46702;48.370;10.794;2022-08-05T00:31:54;20.50;99.10
60868;DHT22;46702;48.370;10.794;2022-08-05T00:34:19;20.10;99.90
60868;DHT22;46702;48.370;10.794;2022-08-05T00:36:45;20.10;99.80
60868;DHT22;46702;48.370;10.794;2022-08-05T00:39:11;20.10;98.40
60868;DHT22;46702;48.370;10.794;2022-08-05T00:41:37;20.20;98.00
60868;DHT22;46702;48.370;10.794;2022-08-05T00:44:03;20.20;98.80
60868;DHT22;46702;48.370;10.794;2022-08-05T00:46:29;20.10;99.00
60868;DHT22;46702;48.370;10.794;2022-08-05T00:48:55;20.00;99.90
60868;DHT22;46702;48.370;10.794;2022-08-05T00:51:21;20.00;99.90
60868;DHT22;46702;48.370;10.794;2022-08-05T00:53:48;20.00;99.80
60868;DHT22;46702;48.370;10.794;2022-08-05T00:56:16;20.10;99.60
60868;DHT22;46702;48.370;10.794;2022-08-05T00:58:42;20.10;99.60
60868;DHT22;46702;48.370;10.794;2022-08-05T01:01:09;20.10;98.70
60868;DHT22;46702;48.370;10.794;2022-08-05T01:03:37;20.20;99.20
60868;DHT22;46702;48.370;10.794;2022-08-05T01:06:03;20.20;97.90
60868;DHT22;46702;48.370;10.794;2022-08-05T01:08:28;20.20;99.00
60868;DHT22;46702;48.370;10.794;2022-08-05T01:11:01;20.20;99.90
60868;DHT22;46702;48.370;10.794;2022-08-05T01:13:38;20.00;99.90
60868;DHT22;46702;48.370;10.794;2022-08-05T01:16:11;19.40;99.90
60868;DHT22;46702;48.370;10.794;2022-08-05T01:18:42;18.70;99.90
60868;DHT22;46702;48.370;10.794;2022-08-05T01:26:36;18.90;99.90
60868;DHT22;46702;48.370;10.794;2022-08-05T01:29:29;19.10;99.90
60868;DHT22;46702;48.370;10.794;2022-08-05T01:32:01;19.00;99.90
60868;DHT22;46702;48.370;10.794;2022-08-05T01:35:08;18.80;99.90
60868;DHT22;46702;48.370;10.794;2022-08-05T01:37:50;18.90;99.90
60868;DHT22;46702;48.370;10.794;2022-08-05T01:40:17;19.10;99.90
60868;DHT22;46702;48.370;10.794;2022-08-05T01:42:45;19.10;99.90
60868;DHT22;46702;48.370;10.794;2022-08-05T01:45:13;19.10;99.90
60868;DHT22;46702;48.370;10.794;2022-08-05T01:47:39;19.10;99.90
60868;DHT22;46702;48.370;10.794;2022-08-05T01:50:13;19.00;99.90
60868;DHT22;46702;48.370;10.794;2022-08-05T01:52:42;19.10;99.90
60868;DHT22;46702;48.370;10.794;2022-08-05T01:55:11;19.10;99.90
60868;DHT22;46702;48.370;10.794;2022-08-05T01:57:39;19.10;99.90
60868;DHT22;46702;48.370;10.794;2022-08-05T02:00:06;19.10;99.90
60868;DHT22;46702;48.370;10.794;2022-08-05T02:02:36;19.10;99.90
60868;DHT22;46702;48.370;10.794;2022-08-05T02:05:05;19.20;99.90
60868;DHT22;46702;48.370;10.794;2022-08-05T02:07:32;19.30;99.90
60868;DHT22;46702;48.370;10.794;2022-08-05T02:09:58;19.20;99.90
60868;DHT22;46702;48.370;10.794;2022-08-05T02:12:26;19.20;99.90
60868;DHT22;46702;48.370;10.794;2022-08-05T02:15:04;19.10;99.90
60868;DHT22;46702;48.370;10.794;2022-08-05T02:17:38;18.80;99.90
60868;DHT22;46702;48.370;10.794;2022-08-05T02:20:08;18.60;99.90
60868;DHT22;46702;48.370;10.794;2022-08-05T02:22:45;18.70;99.90
60868;DHT22;46702;48.370;10.794;2022-08-05T02:25:16;18.60;99.90
60868;DHT22;46702;48.370;10.794;2022-08-05T02:27:43;18.60;99.90
60868;DHT22;46702;48.370;10.794;2022-08-05T02:30:14;18.70;99.90
60868;DHT22;46702;48.370;10.794;2022-08-05T02:32:42;18.80;99.90
60868;DHT22;46702;48.370;10.794;2022-08-05T02:35:11;18.90;99.90
60868;DHT22;46702;48.370;10.794;2022-08-05T02:37:39;18.90;99.90
60868;DHT22;46702;48.370;10.794;2022-08-05T02:40:06;18.70;99.90
60868;DHT22;46702;48.370;10.794;2022-08-05T02:42:33;18.50;99.90
60868;DHT22;46702;48.370;10.794;2022-08-05T02:45:00;18.30;99.90
60868;DHT22;46702;48.370;10.794;2022-08-05T02:47:28;18.10;99.90
60868;DHT22;46702;48.370;10.794;2022-08-05T02:49:54;17.80;99.90
60868;DHT22;46702;48.370;10.794;2022-08-05T02:52:20;17.40;99.90
60868;DHT22;46702;48.370;10.794;2022-08-05T02:54:47;17.50;99.90
60868;DHT22;46702;48.370;10.794;2022-08-05T02:57:14;17.70;99.90
60868;DHT22;46702;48.370;10.794;2022-08-05T02:59:43;17.90;99.90
60868;DHT22;46702;48.370;10.794;2022-08-05T03:02:10;18.10;99.90
60868;DHT22;46702;48.370;10.794;2022-08-05T03:04:36;18.10;99.90
60868;DHT22;46702;48.370;10.794;2022-08-05T03:07:02;18.10;99.90
60868;DHT22;46702;48.370;10.794;2022-08-05T03:09:28;18.00;99.90
60868;DHT22;46702;48.370;10.794;2022-08-05T03:11:54;17.90;99.90
60868;DHT22;46702;48.370;10.794;2022-08-05T03:14:20;17.80;99.90
60868;DHT22;46702;48.370;10.794;2022-08-05T03:16:46;17.50;99.90
60868;DHT22;46702;48.370;10.794;2022-08-05T03:19:11;17.40;99.90
60868;DHT22;46702;48.370;10.794;2022-08-05T03:21:37;17.30;99.90
60868;DHT22;46702;48.370;10.794;2022-08-05T03:24:03;17.50;99.90
60868;DHT22;46702;48.370;10.794;2022-08-05T03:26:29;17.70;99.90
60868;DHT22;46702;48.370;10.794;2022-08-05T03:28:54;17.80;99.90
60868;DHT22;46702;48.370;10.794;2022-08-05T03:31:20;17.90;99.90
60868;DHT22;46702;48.370;10.794;2022-08-05T03:33:46;17.70;99.90
60868;DHT22;46702;48.370;10.794;2022-08-05T03:36:12;17.70;99.90
60868;DHT22;46702;48.370;10.794;2022-08-05T03:38:41;17.80;99.90
60868;DHT22;46702;48.370;10.794;2022-08-05T03:41:07;17.80;99.90
60868;DHT22;46702;48.370;10.794;2022-08-05T03:43:33;17.90;99.90
60868;DHT22;46702;48.370;10.794;2022-08-05T03:45:59;17.90;99.90
60868;DHT22;46702;48.370;10.794;2022-08-05T03:48:26;18.00;99.90
60868;DHT22;46702;48.370;10.794;2022-08-05T03:53:34;17.60;99.90
60868;DHT22;46702;48.370;10.794;2022-08-05T03:56:29;17.30;99.90
60868;DHT22;46702;48.370;10.794;2022-08-05T03:58:59;17.30;99.90
60868;DHT22;46702;48.370;10.794;2022-08-05T04:01:27;17.30;99.90
60868;DHT22;46702;48.370;10.794;2022-08-05T04:03:55;17.40;99.90
60868;DHT22;46702;48.370;10.794;2022-08-05T04:06:22;17.60;99.90
60868;DHT22;46702;48.370;10.794;2022-08-05T04:08:48;17.70;99.90
60868;DHT22;46702;48.370;10.794;2022-08-05T04:11:14;17.90;99.90
60868;DHT22;46702;48.370;10.794;2022-08-05T04:13:41;18.00;99.90
60868;DHT22;46702;48.370;10.794;2022-08-05T04:16:07;18.10;99.90
60868;DHT22;46702;48.370;10.794;2022-08-05T04:18:34;18.20;99.90
60868;DHT22;46702;48.370;10.794;2022-08-05T04:21:00;18.30;99.90
60868;DHT22;46702;48.370;10.794;2022-08-05T04:23:27;18.30;99.90
60868;DHT22;46702;48.370;10.794;2022-08-05T04:25:54;18.40;99.90
60868;DHT22;46702;48.370;10.794;2022-08-05T04:28:20;18.30;99.90
60868;DHT22;46702;48.370;10.794;2022-08-05T04:30:46;18.40;99.90
60868;DHT22;46702;48.370;10.794;2022-08-05T04:33:13;18.50;99.90
60868;DHT22;46702;48.370;10.794;2022-08-05T04:35:40;18.60;99.90
60868;DHT22;46702;48.370;10.794;2022-08-05T04:38:06;18.70;99.90
60868;DHT22;46702;48.370;10.794;2022-08-05T04:40:38;18.70;99.90
60868;DHT22;46702;48.370;10.794;2022-08-05T04:43:05;18.60;99.90
60868;DHT22;46702;48.370;10.794;2022-08-05T04:45:31;18.60;99.90
60868;DHT22;46702;48.370;10.794;2022-08-05T04:48:08;18.60;99.90
60868;DHT22;46702;48.370;10.794;2022-08-05T04:50:39;18.80;99.90
60868;DHT22;46702;48.370;10.794;2022-08-05T04:53:06;19.00;99.90
60868;DHT22;46702;48.370;10.794;2022-08-05T04:55:31;19.10;99.90
60868;DHT22;46702;48.370;10.794;2022-08-05T04:57:57;19.20;99.90
60868;DHT22;46702;48.370;10.794;2022-08-05T05:00:23;19.30;99.90
60868;DHT22;46702;48.370;10.794;2022-08-05T05:02:48;19.50;99.90
60868;DHT22;46702;48.370;10.794;2022-08-05T05:05:14;19.60;99.90
60868;DHT22;46702;48.370;10.794;2022-08-05T05:07:40;19.80;99.90
60868;DHT22;46702;48.370;10.794;2022-08-05T05:10:05;20.00;99.90
60868;DHT22;46702;48.370;10.794;2022-08-05T05:12:31;20.20;99.90
60868;DHT22;46702;48.370;10.794;2022-08-05T05:14:57;20.20;99.90
60868;DHT22;46702;48.370;10.794;2022-08-05T05:17:24;20.30;99.90
60868;DHT22;46702;48.370;10.794;2022-08-05T05:19:52;20.30;99.90
60868;DHT22;46702;48.370;10.794;2022-08-05T05:22:18;20.40;99.90
60868;DHT22;46702;48.370;10.794;2022-08-05T05:24:44;20.60;99.90
60868;DHT22;46702;48.370;10.794;2022-08-05T05:27:09;20.80;99.90
60868;DHT22;46702;48.370;10.794;2022-08-05T05:29:35;21.00;99.90
60868;DHT22;46702;48.370;10.794;2022-08-05T05:32:00;21.10;99.90
60868;DHT22;46702;48.370;10.794;2022-08-05T05:34:26;21.20;99.90
60868;DHT22;46702;48.370;10.794;2022-08-05T05:36:51;21.20;99.90
60868;DHT22;46702;48.370;10.794;2022-08-05T05:39:17;21.30;99.90
60868;DHT22;46702;48.370;10.794;2022-08-05T05:41:43;21.30;99.90
60868;DHT22;46702;48.370;10.794;2022-08-05T05:44:09;21.40;99.70
60868;DHT22;46702;48.370;10.794;2022-08-05T05:46:34;21.50;99.90
60868;DHT22;46702;48.370;10.794;2022-08-05T05:49:00;21.50;99.90
60868;DHT22;46702;48.370;10.794;2022-08-05T05:51:25;21.60;99.30
60868;DHT22;46702;48.370;10.794;2022-08-05T05:53:52;21.70;99.70
60868;DHT22;46702;48.370;10.794;2022-08-05T05:56:19;21.80;99.90
60868;DHT22;46702;48.370;10.794;2022-08-05T05:58:46;21.80;99.30
60868;DHT22;46702;48.370;10.794;2022-08-05T06:01:13;21.90;98.00
60868;DHT22;46702;48.370;10.794;2022-08-05T06:03:39;22.00;99.90
60868;DHT22;46702;48.370;10.794;2022-08-05T06:06:05;22.10;98.40
60868;DHT22;46702;48.370;10.794;2022-08-05T06:08:31;22.20;97.90
60868;DHT22;46702;48.370;10.794;2022-08-05T06:10:57;22.20;96.80
60868;DHT22;46702;48.370;10.794;2022-08-05T06:13:23;22.30;97.50
60868;DHT22;46702;48.370;10.794;2022-08-05T06:15:48;22.30;96.60
60868;DHT22;46702;48.370;10.794;2022-08-05T06:18:14;22.20;96.60
60868;DHT22;46702;48.370;10.794;2022-08-05T06:20:40;22.20;96.10
60868;DHT22;46702;48.370;10.794;2022-08-05T06:23:06;22.20;96.90
60868;DHT22;46702;48.370;10.794;2022-08-05T06:25:32;22.30;97.60
60868;DHT22;46702;48.370;10.794;2022-08-05T06:27:57;22.30;97.80
60868;DHT22;46702;48.370;10.794;2022-08-05T06:30:23;22.40;97.20
60868;DHT22;46702;48.370;10.794;2022-08-05T06:32:51;22.70;96.60
60868;DHT22;46702;48.370;10.794;2022-08-05T06:35:17;22.90;94.00
60868;DHT22;46702;48.370;10.794;2022-08-05T06:37:43;22.90;94.80
60868;DHT22;46702;48.370;10.794;2022-08-05T06:40:10;22.90;93.70
60868;DHT22;46702;48.370;10.794;2022-08-05T06:42:36;22.70;94.00
60868;DHT22;46702;48.370;10.794;2022-08-05T06:45:03;22.60;95.10
60868;DHT22;46702;48.370;10.794;2022-08-05T06:47:29;22.60;94.20
60868;DHT22;46702;48.370;10.794;2022-08-05T06:49:55;22.70;96.20
60868;DHT22;46702;48.370;10.794;2022-08-05T06:52:21;22.70;95.30
60868;DHT22;46702;48.370;10.794;2022-08-05T06:54:46;22.70;94.60
60868;DHT22;46702;48.370;10.794;2022-08-05T06:57:12;22.80;94.90
60868;DHT22;46702;48.370;10.794;2022-08-05T06:59:40;22.90;95.40
60868;DHT22;46702;48.370;10.794;2022-08-05T07:02:06;22.90;93.80
60868;DHT22;46702;48.370;10.794;2022-08-05T07:04:32;23.00;96.20
60868;DHT22;46702;48.370;10.794;2022-08-05T07:06:57;23.10;94.10
60868;DHT22;46702;48.370;10.794;2022-08-05T07:09:23;23.20;94.20
60868;DHT22;46702;48.370;10.794;2022-08-05T07:11:48;23.50;93.50
60868;DHT22;46702;48.370;10.794;2022-08-05T07:14:14;23.50;92.50
60868;DHT22;46702;48.370;10.794;2022-08-05T07:16:59;23.50;90.80
60868;DHT22;46702;48.370;10.794;2022-08-05T07:19:25;23.70;90.10
60868;DHT22;46702;48.370;10.794;2022-08-05T07:21:53;23.90;89.30
60868;DHT22;46702;48.370;10.794;2022-08-05T07:24:19;24.10;87.80
60868;DHT22;46702;48.370;10.794;2022-08-05T07:26:45;24.30;86.50
60868;DHT22;46702;48.370;10.794;2022-08-05T07:29:11;24.40;85.30
60868;DHT22;46702;48.370;10.794;2022-08-05T07:31:37;24.40;85.20
60868;DHT22;46702;48.370;10.794;2022-08-05T07:34:03;24.20;84.70
60868;DHT22;46702;48.370;10.794;2022-08-05T07:36:29;24.30;86.00
60868;DHT22;46702;48.370;10.794;2022-08-05T07:38:55;24.40;89.50
60868;DHT22;46702;48.370;10.794;2022-08-05T07:41:22;24.50;89.20
60868;DHT22;46702;48.370;10.794;2022-08-05T07:43:49;24.50;83.80
60868;DHT22;46702;48.370;10.794;2022-08-05T07:46:14;24.60;87.00
60868;DHT22;46702;48.370;10.794;2022-08-05T07:48:40;24.60;84.50
60868;DHT22;46702;48.370;10.794;2022-08-05T07:51:06;24.60;83.50
60868;DHT22;46702;48.370;10.794;2022-08-05T07:53:31;24.70;84.70
60868;DHT22;46702;48.370;10.794;2022-08-05T07:55:57;24.80;86.90
60868;DHT22;46702;48.370;10.794;2022-08-05T07:58:23;24.90;82.10
60868;DHT22;46702;48.370;10.794;2022-08-05T08:00:48;24.90;83.80
60868;DHT22;46702;48.370;10.794;2022-08-05T08:03:15;25.10;89.40
60868;DHT22;46702;48.370;10.794;2022-08-05T08:05:41;25.10;84.00
60868;DHT22;46702;48.370;10.794;2022-08-05T08:08:09;25.10;81.50
60868;DHT22;46702;48.370;10.794;2022-08-05T08:10:35;25.10;83.30
60868;DHT22;46702;48.370;10.794;2022-08-05T08:13:01;24.90;83.50
60868;DHT22;46702;48.370;10.794;2022-08-05T08:15:26;25.00;82.50
60868;DHT22;46702;48.370;10.794;2022-08-05T08:17:52;25.10;85.00
60868;DHT22;46702;48.370;10.794;2022-08-05T08:20:17;25.40;82.90
60868;DHT22;46702;48.370;10.794;2022-08-05T08:22:49;25.50;81.40
60868;DHT22;46702;48.370;10.794;2022-08-05T08:25:14;25.80;82.50
60868;DHT22;46702;48.370;10.794;2022-08-05T08:27:40;26.10;82.00
60868;DHT22;46702;48.370;10.794;2022-08-05T08:30:07;26.40;80.90
60868;DHT22;46702;48.370;10.794;2022-08-05T08:32:35;26.50;73.40
60868;DHT22;46702;48.370;10.794;2022-08-05T08:35:01;26.50;71.80
60868;DHT22;46702;48.370;10.794;2022-08-05T08:37:27;26.60;68.50
60868;DHT22;46702;48.370;10.794;2022-08-05T08:39:52;26.60;65.80
60868;DHT22;46702;48.370;10.794;2022-08-05T08:42:18;26.60;64.60
60868;DHT22;46702;48.370;10.794;2022-08-05T08:44:46;26.70;68.90
60868;DHT22;46702;48.370;10.794;2022-08-05T08:47:12;27.00;64.40
60868;DHT22;46702;48.370;10.794;2022-08-05T08:49:43;27.30;67.10
60868;DHT22;46702;48.370;10.794;2022-08-05T08:52:21;27.50;65.00
60868;DHT22;46702;48.370;10.794;2022-08-05T08:54:49;27.80;60.80
60868;DHT22;46702;48.370;10.794;2022-08-05T08:57:16;27.80;57.00
60868;DHT22;46702;48.370;10.794;2022-08-05T08:59:42;27.70;58.80
60868;DHT22;46702;48.370;10.794;2022-08-05T09:02:08;27.60;59.70
60868;DHT22;46702;48.370;10.794;2022-08-05T09:04:34;27.70;61.00
60868;DHT22;46702;48.370;10.794;2022-08-05T09:07:03;27.90;57.50
60868;DHT22;46702;48.370;10.794;2022-08-05T09:09:30;27.90;56.10
60868;DHT22;46702;48.370;10.794;2022-08-05T09:11:56;27.90;57.00
60868;DHT22;46702;48.370;10.794;2022-08-05T09:14:22;27.90;55.60
60868;DHT22;46702;48.370;10.794;2022-08-05T09:16:48;28.20;57.80
60868;DHT22;46702;48.370;10.794;2022-08-05T09:19:14;28.60;54.00
60868;DHT22;46702;48.370;10.794;2022-08-05T09:21:40;28.50;57.00
60868;DHT22;46702;48.370;10.794;2022-08-05T09:24:07;28.80;55.20
60868;DHT22;46702;48.370;10.794;2022-08-05T09:26:35;28.90;51.60
60868;DHT22;46702;48.370;10.794;2022-08-05T09:29:04;28.60;49.60
60868;DHT22;46702;48.370;10.794;2022-08-05T09:31:31;28.70;49.70
60868;DHT22;46702;48.370;10.794;2022-08-05T09:36:47;28.80;50.80
60868;DHT22;46702;48.370;10.794;2022-08-05T09:39:15;29.20;49.60
60868;DHT22;46702;48.370;10.794;2022-08-05T09:42:20;29.30;47.10
60868;DHT22;46702;48.370;10.794;2022-08-05T09:44:48;29.60;47.50
60868;DHT22;46702;48.370;10.794;2022-08-05T09:47:19;29.70;46.20
60868;DHT22;46702;48.370;10.794;2022-08-05T09:49:49;29.60;45.40
60868;DHT22;46702;48.370;10.794;2022-08-05T09:52:35;29.80;44.10
60868;DHT22;46702;48.370;10.794;2022-08-05T09:55:10;30.10;46.30
60868;DHT22;46702;48.370;10.794;2022-08-05T09:57:41;30.10;44.30
60868;DHT22;46702;48.370;10.794;2022-08-05T10:02:42;30.20;44.30
60868;DHT22;46702;48.370;10.794;2022-08-05T10:05:13;30.30;43.80
60868;DHT22;46702;48.370;10.794;2022-08-05T10:07:51;30.50;43.10
60868;DHT22;46702;48.370;10.794;2022-08-05T10:10:23;30.50;42.50
60868;DHT22;46702;48.370;10.794;2022-08-05T10:12:51;30.40;42.40
60868;DHT22;46702;48.370;10.794;2022-08-05T10:15:28;30.30;44.90
60868;DHT22;46702;48.370;10.794;2022-08-05T10:18:12;30.40;44.30
60868;DHT22;46702;48.370;10.794;2022-08-05T10:20:47;30.60;43.00
60868;DHT22;46702;48.370;10.794;2022-08-05T10:23:34;30.50;44.50
60868;DHT22;46702;48.370;10.794;2022-08-05T10:26:06;30.60;42.20
60868;DHT22;46702;48.370;10.794;2022-08-05T10:28:33;30.50;43.70
60868;DHT22;46702;48.370;10.794;2022-08-05T10:31:00;30.40;42.60
60868;DHT22;46702;48.370;10.794;2022-08-05T10:33:29;30.30;43.60
60868;DHT22;46702;48.370;10.794;2022-08-05T10:35:56;30.40;43.00
60868;DHT22;46702;48.370;10.794;2022-08-05T10:38:24;30.50;42.70
60868;DHT22;46702;48.370;10.794;2022-08-05T10:46:11;30.30;46.30
60868;DHT22;46702;48.370;10.794;2022-08-05T10:48:45;30.00;46.10
60868;DHT22;46702;48.370;10.794;2022-08-05T10:53:42;30.00;42.90
60868;DHT22;46702;48.370;10.794;2022-08-05T10:56:14;30.10;45.00
60868;DHT22;46702;48.370;10.794;2022-08-05T10:59:02;30.10;44.60
60868;DHT22;46702;48.370;10.794;2022-08-05T11:01:33;30.00;45.90
60868;DHT22;46702;48.370;10.794;2022-08-05T11:09:24;29.80;45.90
60868;DHT22;46702;48.370;10.794;2022-08-05T11:11:51;29.80;43.40
60868;DHT22;46702;48.370;10.794;2022-08-05T11:14:24;29.80;43.60
60868;DHT22;46702;48.370;10.794;2022-08-05T11:17:28;30.00;47.00
60868;DHT22;46702;48.370;10.794;2022-08-05T11:19:55;30.00;43.60
60868;DHT22;46702;48.370;10.794;2022-08-05T11:22:46;30.00;41.90
60868;DHT22;46702;48.370;10.794;2022-08-05T11:25:32;30.10;42.30
60868;DHT22;46702;48.370;10.794;2022-08-05T11:36:07;30.30;43.30
60868;DHT22;46702;48.370;10.794;2022-08-05T11:43:44;30.50;41.20
60868;DHT22;46702;48.370;10.794;2022-08-05T11:46:17;30.40;40.60
60868;DHT22;46702;48.370;10.794;2022-08-05T11:48:43;30.30;41.10
60868;DHT22;46702;48.370;10.794;2022-08-05T11:51:09;30.30;43.10
60868;DHT22;46702;48.370;10.794;2022-08-05T11:53:35;30.40;42.20
60868;DHT22;46702;48.370;10.794;2022-08-05T11:56:01;30.40;41.50
60868;DHT22;46702;48.370;10.794;2022-08-05T11:58:33;30.40;41.70
60868;DHT22;46702;48.370;10.794;2022-08-05T12:01:13;30.30;41.80
60868;DHT22;46702;48.370;10.794;2022-08-05T12:03:54;30.40;42.30
60868;DHT22;46702;48.370;10.794;2022-08-05T12:06:22;30.70;41.40
60868;DHT22;46702;48.370;10.794;2022-08-05T12:08:53;30.90;40.60
60868;DHT22;46702;48.370;10.794;2022-08-05T12:11:26;30.90;41.50
60868;DHT22;46702;48.370;10.794;2022-08-05T12:14:10;31.10;39.90
60868;DHT22;46702;48.370;10.794;2022-08-05T12:16:45;30.60;40.40
60868;DHT22;46702;48.370;10.794;2022-08-05T12:19:12;30.60;41.30
60868;DHT22;46702;48.370;10.794;2022-08-05T12:21:46;30.70;41.90
60868;DHT22;46702;48.370;10.794;2022-08-05T12:24:18;30.40;41.00
60868;DHT22;46702;48.370;10.794;2022-08-05T12:26:49;30.00;41.40
60868;DHT22;46702;48.370;10.794;2022-08-05T12:31:58;29.80;41.90
60868;DHT22;46702;48.370;10.794;2022-08-05T12:34:30;30.00;43.50
60868;DHT22;46702;48.370;10.794;2022-08-05T12:36:59;30.20;42.70
60868;DHT22;46702;48.370;10.794;2022-08-05T12:39:26;30.20;42.80
60868;DHT22;46702;48.370;10.794;2022-08-05T12:41:57;30.40;42.70
60868;DHT22;46702;48.370;10.794;2022-08-05T12:44:23;30.40;45.40
60868;DHT22;46702;48.370;10.794;2022-08-05T12:46:54;30.50;42.70
60868;DHT22;46702;48.370;10.794;2022-08-05T12:49:20;30.50;43.30
60868;DHT22;46702;48.370;10.794;2022-08-05T12:51:47;30.60;43.80
60868;DHT22;46702;48.370;10.794;2022-08-05T12:54:28;30.60;43.10
60868;DHT22;46702;48.370;10.794;2022-08-05T12:57:03;30.60;42.90
60868;DHT22;46702;48.370;10.794;2022-08-05T12:59:30;30.50;42.50
60868;DHT22;46702;48.370;10.794;2022-08-05T13:04:30;30.40;42.00
60868;DHT22;46702;48.370;10.794;2022-08-05T13:06:58;30.60;42.30
60868;DHT22;46702;48.370;10.794;2022-08-05T13:09:25;30.70;42.00
60868;DHT22;46702;48.370;10.794;2022-08-05T13:12:01;30.60;41.60
60868;DHT22;46702;48.370;10.794;2022-08-05T13:14:28;30.70;45.90
60868;DHT22;46702;48.370;10.794;2022-08-05T13:16:56;30.70;42.80
60868;DHT22;46702;48.370;10.794;2022-08-05T13:19:25;30.70;42.60
60868;DHT22;46702;48.370;10.794;2022-08-05T13:21:51;30.70;41.10
60868;DHT22;46702;48.370;10.794;2022-08-05T13:24:18;30.70;41.10
60868;DHT22;46702;48.370;10.794;2022-08-05T13:26:45;30.70;42.10
60868;DHT22;46702;48.370;10.794;2022-08-05T13:29:11;30.50;41.20
60868;DHT22;46702;48.370;10.794;2022-08-05T13:31:37;30.50;41.70
60868;DHT22;46702;48.370;10.794;2022-08-05T13:34:02;30.60;41.50
60868;DHT22;46702;48.370;10.794;2022-08-05T13:36:28;30.50;40.60
60868;DHT22;46702;48.370;10.794;2022-08-05T13:38:54;30.40;41.50
60868;DHT22;46702;48.370;10.794;2022-08-05T13:41:20;30.60;42.00
60868;DHT22;46702;48.370;10.794;2022-08-05T13:43:45;30.60;39.00
60868;DHT22;46702;48.370;10.794;2022-08-05T13:46:11;30.70;41.60
60868;DHT22;46702;48.370;10.794;2022-08-05T13:48:37;30.70;43.30
60868;DHT22;46702;48.370;10.794;2022-08-05T13:51:10;30.60;39.80
60868;DHT22;46702;48.370;10.794;2022-08-05T13:53:38;30.60;40.50
60868;DHT22;46702;48.370;10.794;2022-08-05T13:56:04;30.60;40.70
60868;DHT22;46702;48.370;10.794;2022-08-05T13:58:30;30.70;41.20
60868;DHT22;46702;48.370;10.794;2022-08-05T14:00:56;30.80;40.60
60868;DHT22;46702;48.370;10.794;2022-08-05T14:03:22;30.80;40.10
60868;DHT22;46702;48.370;10.794;2022-08-05T14:05:48;30.90;40.50
60868;DHT22;46702;48.370;10.794;2022-08-05T14:08:15;31.00;40.10
60868;DHT22;46702;48.370;10.794;2022-08-05T14:10:41;31.20;38.80
60868;DHT22;46702;48.370;10.794;2022-08-05T14:13:07;31.10;39.20
60868;DHT22;46702;48.370;10.794;2022-08-05T14:15:33;31.10;39.30
60868;DHT22;46702;48.370;10.794;2022-08-05T14:17:59;31.20;39.90
60868;DHT22;46702;48.370;10.794;2022-08-05T14:20:26;31.00;38.30
60868;DHT22;46702;48.370;10.794;2022-08-05T14:22:52;31.00;40.30
60868;DHT22;46702;48.370;10.794;2022-08-05T14:25:18;31.10;38.20
60868;DHT22;46702;48.370;10.794;2022-08-05T14:27:46;31.10;38.10
60868;DHT22;46702;48.370;10.794;2022-08-05T14:30:13;31.10;39.70
60868;DHT22;46702;48.370;10.794;2022-08-05T14:32:39;31.10;39.80
60868;DHT22;46702;48.370;10.794;2022-08-05T14:35:05;31.20;41.20
60868;DHT22;46702;48.370;10.794;2022-08-05T14:37:31;31.30;41.90
60868;DHT22;46702;48.370;10.794;2022-08-05T14:39:56;31.30;39.50
60868;DHT22;46702;48.370;10.794;2022-08-05T14:42:22;31.10;38.30
60868;DHT22;46702;48.370;10.794;2022-08-05T14:44:48;30.90;38.60
60868;DHT22;46702;48.370;10.794;2022-08-05T14:47:14;30.90;40.40
60868;DHT22;46702;48.370;10.794;2022-08-05T14:49:40;31.00;39.80
60868;DHT22;46702;48.370;10.794;2022-08-05T14:52:05;31.20;40.90
60868;DHT22;46702;48.370;10.794;2022-08-05T14:54:31;31.20;40.90
60868;DHT22;46702;48.370;10.794;2022-08-05T14:56:57;31.10;37.60
60868;DHT22;46702;48.370;10.794;2022-08-05T14:59:24;31.00;37.80
60868;DHT22;46702;48.370;10.794;2022-08-05T15:01:50;31.10;39.30
60868;DHT22;46702;48.370;10.794;2022-08-05T15:04:19;31.20;39.90
60868;DHT22;46702;48.370;10.794;2022-08-05T15:06:45;31.20;40.10
60868;DHT22;46702;48.370;10.794;2022-08-05T15:09:11;31.20;40.60
60868;DHT22;46702;48.370;10.794;2022-08-05T15:11:37;31.20;39.00
60868;DHT22;46702;48.370;10.794;2022-08-05T15:14:03;31.00;40.30
60868;DHT22;46702;48.370;10.794;2022-08-05T15:16:29;31.00;39.50
60868;DHT22;46702;48.370;10.794;2022-08-05T15:18:55;31.00;40.50
60868;DHT22;46702;48.370;10.794;2022-08-05T15:21:21;31.10;41.40
60868;DHT22;46702;48.370;10.794;2022-08-05T15:23:47;31.20;41.00
60868;DHT22;46702;48.370;10.794;2022-08-05T15:26:13;31.30;39.30
60868;DHT22;46702;48.370;10.794;2022-08-05T15:28:42;31.30;41.40
60868;DHT22;46702;48.370;10.794;2022-08-05T15:31:08;31.30;40.60
60868;DHT22;46702;48.370;10.794;2022-08-05T15:33:34;31.40;40.40
60868;DHT22;46702;48.370;10.794;2022-08-05T15:35:59;31.50;40.70
60868;DHT22;46702;48.370;10.794;2022-08-05T15:38:26;31.40;39.60
60868;DHT22;46702;48.370;10.794;2022-08-05T15:40:51;31.40;38.80
60868;DHT22;46702;48.370;10.794;2022-08-05T15:43:17;31.30;40.10
60868;DHT22;46702;48.370;10.794;2022-08-05T15:45:43;31.30;41.70
60868;DHT22;46702;48.370;10.794;2022-08-05T15:48:09;31.30;40.10
60868;DHT22;46702;48.370;10.794;2022-08-05T15:50:35;31.30;38.60
60868;DHT22;46702;48.370;10.794;2022-08-05T15:53:01;31.30;39.70
60868;DHT22;46702;48.370;10.794;2022-08-05T15:55:26;31.30;39.60
60868;DHT22;46702;48.370;10.794;2022-08-05T15:57:52;31.30;39.40
60868;DHT22;46702;48.370;10.794;2022-08-05T16:00:18;31.30;41.10
60868;DHT22;46702;48.370;10.794;2022-08-05T16:02:44;31.30;40.20
60868;DHT22;46702;48.370;10.794;2022-08-05T16:05:10;31.10;41.40